createdAt,value
2023-05-18T00:01:00.292Z,7.25
2023-05-18T00:03:47.359Z,6.93
2023-05-18T00:06:33.833Z,6.28
2023-05-18T00:09:20.199Z,5.50
2023-05-18T00:12:07.065Z,6.55
2023-05-18T00:14:54.423Z,6.75
2023-05-18T00:20:37.700Z,7.78
2023-05-18T00:23:24.872Z,6.97
2023-05-18T00:26:10.683Z,8.05
2023-05-18T00:28:56.933Z,7.50
2023-05-18T00:31:45.451Z,10.13
2023-05-18T00:34:32.362Z,9.10
2023-05-18T00:37:18.527Z,7.78
2023-05-18T00:40:12.422Z,9.05
2023-05-18T00:43:05.818Z,8.27
2023-05-18T00:45:58.249Z,9.93
2023-05-18T00:52:15.920Z,10.77
2023-05-18T00:55:09.826Z,10.35
2023-05-18T00:58:02.256Z,8.85
2023-05-18T01:00:56.300Z,8.30
2023-05-18T01:03:49.624Z,8.40
2023-05-18T01:09:58.049Z,8.30
2023-05-18T01:12:55.017Z,10.73
2023-05-18T01:15:52.568Z,9.73
2023-05-18T01:18:54.735Z,10.40
2023-05-18T01:21:55.667Z,9.88
2023-05-18T01:24:49.781Z,10.05
2023-05-18T01:27:46.409Z,8.93
2023-05-18T01:30:42.668Z,9.20
2023-05-18T01:33:36.394Z,10.60
2023-05-18T01:36:54.805Z,10.50
2023-05-18T01:39:47.641Z,9.30
2023-05-18T01:42:45.987Z,10.05
2023-05-18T01:48:55.513Z,10.57
2023-05-18T01:51:49.891Z,10.63
2023-05-18T01:54:39.927Z,10.05
2023-05-18T01:57:34.565Z,9.48
2023-05-18T02:00:28.568Z,10.32
2023-05-18T02:03:22.096Z,11.52
2023-05-18T02:06:15.483Z,8.68
2023-05-18T02:09:08.961Z,9.18
2023-05-18T02:15:31.989Z,9.80
2023-05-18T02:18:26.712Z,9.05
2023-05-18T02:21:19.425Z,7.15
2023-05-18T02:24:12.815Z,7.35
2023-05-18T02:27:06.800Z,8.43
2023-05-18T02:30:24.301Z,8.50
2023-05-18T02:33:19.545Z,8.30
2023-05-18T02:36:49.815Z,6.85
2023-05-18T02:39:43.461Z,7.40
2023-05-18T02:43:04.677Z,8.40
2023-05-18T02:45:57.534Z,9.45
2023-05-18T02:48:51.842Z,10.85
2023-05-18T02:55:03.431Z,9.38
2023-05-18T02:58:14.551Z,8.88
2023-05-18T03:01:41.042Z,7.85
2023-05-18T03:04:37.789Z,9.10
2023-05-18T03:07:32.985Z,8.75
2023-05-18T03:10:26.463Z,9.90
2023-05-18T03:13:19.569Z,9.13
2023-05-18T03:16:13.301Z,10.70
2023-05-18T03:19:06.470Z,8.85
2023-05-18T03:25:33.678Z,10.10
2023-05-18T03:28:27.285Z,8.83
2023-05-18T03:31:20.393Z,9.70
2023-05-18T03:34:13.736Z,9.23
2023-05-18T03:40:20.057Z,7.68
2023-05-18T03:43:15.670Z,7.28
2023-05-18T03:46:09.340Z,7.35
2023-05-18T03:49:03.407Z,10.90
2023-05-18T03:52:02.911Z,11.75
2023-05-18T03:54:56.829Z,10.32
2023-05-18T03:57:49.734Z,10.77
2023-05-18T04:00:43.558Z,10.07
2023-05-18T04:06:55.704Z,9.02
2023-05-18T04:09:49.015Z,8.10
2023-05-18T04:12:41.709Z,8.25
2023-05-18T04:15:35.286Z,10.23
2023-05-18T04:18:30.101Z,9.95
2023-05-18T04:21:23.314Z,10.20
2023-05-18T04:24:16.576Z,8.75
2023-05-18T04:30:30.292Z,9.13
2023-05-18T04:33:23.976Z,10.00
2023-05-18T04:36:21.405Z,8.07
2023-05-18T04:39:14.998Z,9.52
2023-05-18T04:42:21.366Z,11.32
2023-05-18T04:45:17.563Z,11.35
2023-05-18T04:48:10.760Z,11.75
2023-05-18T04:51:04.649Z,12.82
2023-05-18T04:53:58.898Z,15.57
2023-05-18T04:56:51.592Z,13.20
2023-05-18T05:02:57.467Z,13.30
2023-05-18T05:05:50.303Z,15.48
2023-05-18T05:11:59.801Z,17.40
2023-05-18T05:14:52.498Z,16.65
2023-05-18T05:17:47.307Z,17.27
2023-05-18T05:20:40.370Z,13.48
2023-05-18T05:23:33.535Z,9.38
2023-05-18T05:26:26.432Z,4.70
2023-05-18T05:29:21.491Z,3.88
2023-05-18T05:35:25.479Z,2.88
2023-05-18T05:41:43.542Z,4.15
2023-05-18T05:44:39.310Z,4.78
2023-05-18T05:47:32.486Z,3.27
2023-05-18T05:50:25.407Z,3.65
2023-05-18T05:56:32.684Z,3.38
2023-05-18T05:59:25.332Z,3.10
2023-05-18T06:02:19.875Z,3.10
2023-05-18T06:05:13.532Z,3.10
2023-05-18T06:08:06.613Z,3.17
2023-05-18T06:10:59.392Z,2.90
2023-05-18T06:13:53.221Z,2.85
2023-05-18T06:16:46.236Z,2.95
2023-05-18T06:19:41.053Z,2.65
2023-05-18T06:22:33.128Z,2.40
2023-05-18T06:29:08.818Z,1.77
2023-05-18T06:32:20.438Z,2.38
2023-05-18T06:35:20.722Z,2.47
2023-05-18T06:38:13.479Z,2.85
2023-05-18T06:41:06.541Z,2.45
2023-05-18T06:44:01.391Z,2.42
2023-05-18T06:50:16.243Z,2.88
2023-05-18T06:53:10.682Z,2.40
2023-05-18T06:56:04.751Z,2.40
2023-05-18T06:58:58.968Z,2.30
2023-05-18T07:01:53.340Z,2.75
2023-05-18T07:04:48.014Z,2.63
2023-05-18T07:07:40.368Z,2.40
2023-05-18T07:14:10.681Z,2.50
2023-05-18T07:17:31.708Z,2.20
2023-05-18T07:20:26.137Z,2.63
2023-05-18T07:23:19.626Z,2.28
2023-05-18T07:26:12.510Z,2.58
2023-05-18T07:32:13.518Z,2.92
2023-05-18T07:35:06.817Z,2.50
2023-05-18T07:37:59.438Z,2.55
2023-05-18T07:40:52.772Z,2.25
2023-05-18T07:43:45.254Z,2.50
2023-05-18T07:46:38.397Z,2.55
2023-05-18T07:49:32.697Z,2.33
2023-05-18T07:52:25.593Z,1.92
2023-05-18T07:58:30.748Z,2.38
2023-05-18T08:01:27.311Z,2.40
2023-05-18T08:04:20.475Z,2.35
2023-05-18T08:07:14.627Z,2.58
2023-05-18T08:16:16.487Z,2.17
2023-05-18T08:19:09.278Z,2.45
2023-05-18T08:22:02.420Z,2.35
2023-05-18T08:24:58.054Z,2.33
2023-05-18T08:27:50.768Z,1.95
2023-05-18T08:30:43.658Z,2.42
2023-05-18T08:36:47.270Z,2.40
2023-05-18T08:39:40.462Z,2.45
2023-05-18T08:42:49.441Z,1.90
2023-05-18T08:45:46.062Z,2.42
2023-05-18T08:48:44.865Z,2.63
2023-05-18T08:51:40.505Z,3.22
2023-05-18T08:54:33.977Z,2.35
2023-05-18T09:00:40.078Z,3.13
2023-05-18T09:03:32.664Z,2.25
2023-05-18T09:06:29.309Z,3.58
2023-05-18T09:09:23.280Z,3.00
2023-05-18T09:12:17.226Z,2.83
2023-05-18T09:15:11.796Z,2.92
2023-05-18T09:18:05.958Z,2.58
2023-05-18T09:20:58.212Z,3.70
2023-05-18T09:23:51.421Z,2.45
2023-05-18T09:26:44.582Z,2.47
2023-05-18T09:29:33.992Z,2.28
2023-05-18T09:32:27.338Z,2.03
2023-05-18T09:35:22.765Z,2.40
2023-05-18T09:38:17.306Z,2.70
2023-05-18T09:41:11.162Z,3.40
2023-05-18T09:44:08.903Z,2.67
2023-05-18T09:47:01.579Z,2.72
2023-05-18T09:49:57.489Z,2.72
2023-05-18T09:53:27.660Z,2.85
2023-05-18T09:56:21.800Z,2.05
2023-05-18T09:59:16.148Z,2.45
2023-05-18T10:05:27.151Z,2.72
2023-05-18T10:08:19.422Z,2.42
2023-05-18T10:11:13.157Z,2.50
2023-05-18T10:14:06.759Z,2.67
2023-05-18T10:17:14.413Z,2.60
2023-05-18T10:20:40.151Z,2.85
2023-05-18T10:23:34.573Z,3.50
2023-05-18T10:29:46.362Z,2.35
2023-05-18T10:35:40.864Z,3.28
2023-05-18T10:38:28.588Z,2.58
2023-05-18T10:41:14.507Z,3.13
2023-05-18T10:44:03.849Z,2.50
2023-05-18T10:46:51.536Z,2.45
2023-05-18T10:49:38.333Z,2.75
2023-05-18T10:52:26.456Z,2.22
2023-05-18T10:55:13.329Z,2.28
2023-05-18T10:58:03.621Z,2.35
2023-05-18T11:00:51.666Z,2.20
2023-05-18T11:03:39.602Z,2.35
2023-05-18T11:06:25.752Z,3.47
2023-05-18T11:09:23.857Z,2.75
2023-05-18T11:12:41.602Z,2.42
2023-05-18T11:16:06.505Z,2.65
2023-05-18T11:22:13.601Z,3.45
2023-05-18T11:25:09.393Z,2.30
2023-05-18T11:28:05.224Z,2.10
2023-05-18T11:30:57.253Z,2.08
2023-05-18T11:33:49.495Z,2.30
2023-05-18T11:36:46.346Z,2.60
2023-05-18T11:39:51.689Z,3.08
2023-05-18T11:42:44.401Z,2.65
2023-05-18T11:45:53.049Z,2.97
2023-05-18T11:48:45.307Z,3.47
2023-05-18T11:51:58.557Z,2.72
2023-05-18T11:54:53.975Z,3.10
2023-05-18T12:01:01.299Z,2.60
2023-05-18T12:03:54.814Z,2.42
2023-05-18T12:06:47.607Z,2.30
2023-05-18T12:09:41.879Z,1.90
2023-05-18T12:15:45.037Z,2.05
2023-05-18T12:18:39.741Z,2.58
2023-05-18T12:21:32.118Z,2.40
2023-05-18T12:24:24.810Z,3.15
2023-05-18T12:27:18.224Z,2.88
2023-05-18T12:30:11.849Z,2.22
2023-05-18T12:33:06.884Z,2.47
2023-05-18T12:35:59.330Z,2.15
2023-05-18T12:42:15.516Z,2.92
2023-05-18T12:49:01.433Z,2.72
2023-05-18T12:52:25.986Z,2.83
2023-05-18T12:55:21.531Z,2.35
2023-05-18T12:58:18.134Z,2.33
2023-05-18T13:01:12.167Z,2.90
2023-05-18T13:04:11.826Z,2.70
2023-05-18T13:07:04.512Z,2.22
2023-05-18T13:10:01.886Z,2.40
2023-05-18T13:12:58.951Z,2.60
2023-05-18T13:15:51.889Z,1.95
2023-05-18T13:18:47.398Z,2.58
2023-05-18T13:22:04.510Z,2.40
2023-05-18T13:24:52.899Z,2.60
2023-05-18T13:31:13.027Z,1.88
2023-05-18T13:37:31.139Z,2.28
2023-05-18T13:40:25.697Z,2.28
2023-05-18T13:43:18.653Z,2.90
2023-05-18T13:46:11.681Z,2.60
2023-05-18T13:49:42.704Z,2.35
2023-05-18T13:52:35.608Z,2.30
2023-05-18T13:55:30.122Z,2.35
2023-05-18T13:58:23.699Z,2.58
2023-05-18T14:01:17.825Z,1.88
2023-05-18T14:04:10.181Z,2.10
2023-05-18T14:07:02.739Z,2.08
2023-05-18T14:10:32.816Z,1.70
2023-05-18T14:13:26.804Z,2.55
2023-05-18T14:16:56.724Z,2.00
2023-05-18T14:19:49.275Z,2.55
2023-05-18T14:22:41.747Z,2.33
2023-05-18T14:25:34.535Z,2.45
2023-05-18T14:28:30.089Z,2.50
2023-05-18T14:31:22.844Z,3.05
2023-05-18T14:34:15.366Z,3.22
2023-05-18T14:37:08.680Z,2.33
2023-05-18T14:40:01.771Z,2.40
2023-05-18T14:42:54.524Z,2.20
2023-05-18T14:46:07.558Z,2.08
2023-05-18T14:49:01.656Z,2.78
2023-05-18T14:51:55.052Z,2.22
2023-05-18T14:54:48.338Z,2.10
2023-05-18T14:57:41.519Z,2.85
2023-05-18T15:00:35.126Z,3.03
2023-05-18T15:03:29.065Z,2.20
2023-05-18T15:06:21.376Z,2.47
2023-05-18T15:09:15.047Z,2.33
2023-05-18T15:12:08.004Z,1.80
2023-05-18T15:15:00.273Z,3.05
2023-05-18T15:17:52.801Z,2.08
2023-05-18T15:20:47.567Z,2.17
2023-05-18T15:23:40.152Z,2.00
2023-05-18T15:26:32.660Z,2.50
2023-05-18T15:29:25.858Z,2.75
2023-05-18T15:32:18.346Z,1.88
2023-05-18T15:35:11.728Z,2.78
2023-05-18T15:38:05.809Z,3.15
2023-05-18T15:40:58.295Z,2.97
2023-05-18T15:43:50.426Z,2.17
2023-05-18T15:46:43.571Z,1.88
2023-05-18T15:49:36.460Z,2.60
2023-05-18T15:52:29.740Z,2.53
2023-05-18T15:55:24.218Z,2.08
2023-05-18T15:58:16.815Z,2.38
2023-05-18T16:01:09.668Z,1.90
2023-05-18T16:07:14.745Z,2.75
2023-05-18T16:10:08.363Z,2.55
2023-05-18T16:13:05.733Z,3.20
2023-05-18T16:19:10.851Z,3.00
2023-05-18T16:22:03.250Z,2.67
2023-05-18T16:24:53.356Z,2.72
2023-05-18T16:27:46.351Z,2.95
2023-05-18T16:30:40.746Z,2.72
2023-05-18T16:33:33.138Z,2.50
2023-05-18T16:36:26.092Z,3.13
2023-05-18T16:39:18.430Z,2.70
2023-05-18T16:42:12.233Z,2.22
2023-05-18T16:45:05.046Z,2.55
2023-05-18T16:48:00.633Z,2.70
2023-05-18T16:50:53.562Z,3.17
2023-05-18T16:53:46.548Z,3.03
2023-05-18T16:56:39.318Z,2.40
2023-05-18T16:59:32.914Z,2.97
2023-05-18T17:02:25.614Z,2.78
2023-05-18T17:05:21.549Z,2.75
2023-05-18T17:08:15.002Z,2.83
2023-05-18T17:11:07.819Z,2.17
2023-05-18T17:14:01.503Z,2.75
2023-05-18T17:16:54.400Z,3.58
2023-05-18T17:20:13.060Z,3.17
2023-05-18T17:23:06.958Z,3.58
2023-05-18T17:26:05.941Z,2.50
2023-05-18T17:29:36.732Z,2.30
2023-05-18T17:32:29.680Z,3.78
2023-05-18T17:35:39.838Z,2.17
2023-05-18T17:38:30.797Z,3.28
2023-05-18T17:41:25.647Z,3.00
2023-05-18T17:44:18.452Z,2.80
2023-05-18T17:47:11.152Z,2.92
2023-05-18T17:50:28.250Z,2.70
2023-05-18T17:53:20.679Z,3.80
2023-05-18T17:56:28.270Z,3.65
2023-05-18T17:59:21.654Z,2.42
2023-05-18T18:05:35.523Z,3.00
2023-05-18T18:08:30.325Z,3.00
2023-05-18T18:11:24.511Z,2.67
2023-05-18T18:14:17.487Z,2.58
2023-05-18T18:17:11.674Z,2.17
2023-05-18T18:20:05.605Z,2.08
2023-05-18T18:26:09.869Z,2.17
2023-05-18T18:29:02.800Z,2.03
2023-05-18T18:32:01.737Z,2.95
2023-05-18T18:34:56.254Z,1.80
2023-05-18T18:37:48.540Z,2.47
2023-05-18T18:40:41.731Z,2.40
2023-05-18T18:43:38.539Z,2.50
2023-05-18T18:46:31.711Z,2.00
2023-05-18T18:49:24.416Z,2.35
2023-05-18T18:56:05.267Z,2.08
2023-05-18T18:59:08.960Z,4.03
2023-05-18T19:02:01.707Z,2.83
2023-05-18T19:04:54.427Z,3.35
2023-05-18T19:07:49.154Z,2.97
2023-05-18T19:10:41.511Z,2.83
2023-05-18T19:13:35.621Z,3.28
2023-05-18T19:16:28.734Z,3.47
2023-05-18T19:22:28.358Z,3.63
2023-05-18T19:25:22.232Z,3.33
2023-05-18T19:28:14.877Z,2.95
2023-05-18T19:31:10.228Z,2.53
2023-05-18T19:34:02.365Z,3.22
2023-05-18T19:36:55.414Z,3.03
2023-05-18T19:39:48.726Z,2.95
2023-05-18T19:43:06.474Z,3.40
2023-05-18T19:45:59.475Z,3.22
2023-05-18T19:49:06.614Z,3.55
2023-05-18T19:52:00.838Z,3.55
2023-05-18T19:58:39.663Z,4.97
2023-05-18T20:01:33.336Z,3.35
2023-05-18T20:04:28.290Z,3.58
2023-05-18T20:07:23.872Z,3.72
2023-05-18T20:10:16.572Z,3.85
2023-05-18T20:13:34.442Z,3.65
2023-05-18T20:16:28.989Z,3.20
2023-05-18T20:22:52.090Z,3.72
2023-05-18T20:25:47.823Z,4.15
2023-05-18T20:29:17.748Z,3.70
2023-05-18T20:32:10.591Z,4.40
2023-05-18T20:35:19.665Z,3.85
2023-05-18T20:38:12.583Z,5.55
2023-05-18T20:44:52.847Z,3.75
2023-05-18T20:47:45.525Z,3.65
2023-05-18T20:50:39.060Z,4.22
2023-05-18T20:53:33.050Z,3.20
2023-05-18T20:56:26.535Z,4.13
2023-05-18T20:59:19.867Z,3.55
2023-05-18T21:02:12.529Z,4.00
2023-05-18T21:08:21.800Z,4.35
2023-05-18T21:14:33.157Z,4.13
2023-05-18T21:17:25.555Z,4.28
2023-05-18T21:20:18.462Z,4.10
2023-05-18T21:23:11.173Z,3.83
2023-05-18T21:26:03.734Z,3.65
2023-05-18T21:28:56.784Z,4.72
2023-05-18T21:31:50.970Z,4.32
2023-05-18T21:34:43.957Z,4.05
2023-05-18T21:37:36.391Z,5.60
2023-05-18T21:40:30.027Z,4.18
2023-05-18T21:47:09.994Z,4.22
2023-05-18T21:50:35.494Z,4.47
2023-05-18T21:53:28.691Z,4.67
2023-05-18T21:56:38.659Z,4.90
2023-05-18T21:59:28.969Z,5.07
2023-05-18T22:02:23.141Z,4.90
2023-05-18T22:05:15.563Z,4.72
2023-05-18T22:08:08.555Z,5.38
2023-05-18T22:11:02.186Z,4.78
2023-05-18T22:13:55.190Z,4.65
2023-05-18T22:16:47.670Z,4.75
2023-05-18T22:19:42.973Z,6.13
2023-05-18T22:22:35.556Z,5.93
2023-05-18T22:25:28.600Z,6.43
2023-05-18T22:28:22.208Z,5.85
2023-05-18T22:31:14.474Z,5.82
2023-05-18T22:34:10.957Z,5.15
2023-05-18T22:37:04.792Z,4.50
2023-05-18T22:39:57.545Z,5.78
2023-05-18T22:42:50.699Z,5.57
2023-05-18T22:45:43.504Z,6.30
2023-05-18T22:58:03.185Z,6.78
2023-05-18T23:04:07.863Z,7.90
2023-05-18T23:07:01.635Z,7.32
2023-05-18T23:09:54.686Z,7.00
2023-05-18T23:12:48.250Z,6.88
2023-05-18T23:15:41.691Z,7.80
2023-05-18T23:18:34.347Z,6.72
2023-05-18T23:21:27.519Z,6.45
2023-05-18T23:24:20.786Z,7.28
2023-05-18T23:27:13.721Z,7.03
2023-05-18T23:30:07.706Z,6.60
2023-05-18T23:33:02.701Z,6.28
2023-05-18T23:39:03.162Z,6.28
2023-05-18T23:41:49.677Z,5.65
2023-05-18T23:44:36.315Z,5.70
2023-05-18T23:47:22.697Z,5.10
2023-05-18T23:50:11.354Z,6.13
2023-05-18T23:53:01.194Z,6.00
2023-05-18T23:56:07.587Z,6.57
2023-05-18T23:58:54.416Z,4.65
